Time;durP1;ratioP1;P1;durP2;ratioP2;P2;SDS_P1;SDS_P2;PMS_P1;PMS_P2;Temp;Humidity;BMP_temperature;BMP_pressure;BME280_temperature;BME280_humidity;BME280_pressure;Samples;Min_cycle;Max_cycle;Signal;HPM_P1;HPM_P2
2023/01/27 00:02:14;;;;;;;14.70;3.17;;;;;;;;;;4929947;28;100358;-70
2023/01/27 00:04:41;;;;;;;18.85;3.40;;;;;;;;;;4929114;28;102039;-69
2023/01/27 00:07:07;;;;;;;12.70;3.70;;;;;;;;;;4948798;28;98783;-70
2023/01/27 00:09:33;;;;;;;19.85;3.80;;;;;;;;;;4940176;28;98949;-69
2023/01/27 00:14:44;;;;;;;17.00;3.45;;;;;;;;;;4935295;28;98649;-70
2023/01/27 00:17:11;;;;;;;22.27;4.32;;;;;;;;;;4935733;28;101468;-69
2023/01/27 00:19:37;;;;;;;8.02;3.17;;;;;;;;;;4931890;28;100399;-68
2023/01/27 00:24:48;;;;;;;13.52;3.55;;;;;;;;;;4931588;28;101071;-68
2023/01/27 00:27:15;;;;;;;15.90;2.90;;;;;;;;;;4931772;28;98561;-68
2023/01/27 00:29:41;;;;;;;15.70;3.92;;;;;;;;;;4947659;28;100659;-68
2023/01/27 00:34:53;;;;;;;23.00;3.92;;;;;;;;;;4949232;28;98545;-68
2023/01/27 00:37:19;;;;;;;8.55;3.97;;;;;;;;;;4950432;28;99268;-68
2023/01/27 00:39:46;;;;;;;18.40;4.45;;;;;;;;;;4941626;28;100664;-68
2023/01/27 00:42:12;;;;;;;15.90;3.95;;;;;;;;;;4929990;28;98020;-68
2023/01/27 00:45:47;;;;;;;12.05;4.18;;;;;;;;;;4938074;28;98588;-69
2023/01/27 00:47:24;;;;;;;14.10;3.78;;;;;;;;;;4921167;28;99973;-68
2023/01/27 00:49:51;;;;;;;14.27;3.97;;;;;;;;;;4926356;28;101689;-69
2023/01/27 00:52:18;;;;;;;10.32;4.32;;;;;;;;;;4931150;28;99557;-68
2023/01/27 00:54:44;;;;;;;13.90;4.53;;;;;;;;;;4931571;28;98656;-68
2023/01/27 00:57:10;;;;;;;20.33;5.25;;;;;;;;;;4931309;28;99365;-68
2023/01/27 00:59:37;;;;;;;12.10;4.25;;;;;;;;;;4929956;28;99564;-68
2023/01/27 01:02:03;;;;;;;15.30;4.50;;;;;;;;;;4930777;28;98668;-68
2023/01/27 01:04:29;;;;;;;18.27;5.22;;;;;;;;;;4931163;28;99600;-68
2023/01/27 01:06:56;;;;;;;14.70;5.43;;;;;;;;;;4934115;28;98711;-68
2023/01/27 01:09:22;;;;;;;26.27;6.10;;;;;;;;;;4931393;28;102013;-68
2023/01/27 01:11:48;;;;;;;15.20;5.13;;;;;;;;;;4931095;28;99992;-68
2023/01/27 01:14:14;;;;;;;18.05;5.43;;;;;;;;;;4929422;28;99322;-68
2023/01/27 01:16:41;;;;;;;10.40;5.18;;;;;;;;;;4931093;28;100444;-68
2023/01/27 01:19:07;;;;;;;14.95;5.93;;;;;;;;;;4930691;28;99643;-68
2023/01/27 01:21:34;;;;;;;24.77;6.25;;;;;;;;;;4930890;28;99028;-68
2023/01/27 01:24:00;;;;;;;14.23;5.85;;;;;;;;;;4931003;28;98524;-68
2023/01/27 01:26:26;;;;;;;17.15;5.57;;;;;;;;;;4933963;28;99619;-68
2023/01/27 01:28:53;;;;;;;12.70;5.50;;;;;;;;;;4931512;28;99279;-68
2023/01/27 01:31:19;;;;;;;12.80;6.05;;;;;;;;;;4933297;28;98925;-68
2023/01/27 01:33:46;;;;;;;15.38;6.43;;;;;;;;;;4934078;28;98563;-68
2023/01/27 01:36:14;;;;;;;15.88;5.93;;;;;;;;;;4934717;28;99318;-68
2023/01/27 01:38:41;;;;;;;15.38;7.03;;;;;;;;;;4933757;28;100329;-68
2023/01/27 01:41:09;;;;;;;17.58;6.70;;;;;;;;;;4934606;28;98560;-68
2023/01/27 01:43:35;;;;;;;14.23;7.13;;;;;;;;;;4934511;28;100607;-68
2023/01/27 01:46:03;;;;;;;17.55;6.03;;;;;;;;;;4932872;28;100543;-68
2023/01/27 01:48:34;;;;;;;18.73;7.57;;;;;;;;;;4937796;28;98777;-68
2023/01/27 01:51:03;;;;;;;16.13;6.85;;;;;;;;;;4933825;28;99647;-68
2023/01/27 01:53:35;;;;;;;14.43;6.28;;;;;;;;;;4934382;28;98797;-68
2023/01/27 01:56:07;;;;;;;16.13;7.43;;;;;;;;;;4929149;28;99134;-68
2023/01/27 01:58:33;;;;;;;15.88;7.20;;;;;;;;;;4915473;28;99434;-68
2023/01/27 02:01:01;;;;;;;23.60;7.55;;;;;;;;;;4932896;28;98504;-68
2023/01/27 02:03:28;;;;;;;20.30;7.03;;;;;;;;;;4928126;28;100668;-68
2023/01/27 02:05:54;;;;;;;23.23;7.15;;;;;;;;;;4913552;28;100383;-68
2023/01/27 02:08:33;;;;;;;17.67;7.13;;;;;;;;;;4914702;28;98534;-68
2023/01/27 02:11:00;;;;;;;15.73;6.80;;;;;;;;;;4934431;28;99540;-68
2023/01/27 02:13:26;;;;;;;18.50;6.85;;;;;;;;;;4934091;28;98512;-68
2023/01/27 02:15:53;;;;;;;19.67;7.65;;;;;;;;;;4934302;28;99257;-68
2023/01/27 02:18:20;;;;;;;15.18;7.47;;;;;;;;;;4933516;28;99812;-68
2023/01/27 02:20:50;;;;;;;21.42;6.97;;;;;;;;;;4934084;28;97812;-68
2023/01/27 02:23:17;;;;;;;;;;;;;;;;;;4933474;28;98898;-68
2023/01/27 02:25:47;;;;;;;14.93;6.82;;;;;;;;;;4932961;28;130025;-68
2023/01/27 02:28:13;;;;;;;18.27;6.80;;;;;;;;;;4933288;28;99287;-68
2023/01/27 02:30:40;;;;;;;14.75;7.32;;;;;;;;;;4933574;28;99955;-67
2023/01/27 02:33:13;;;;;;;17.85;6.88;;;;;;;;;;4936229;28;99787;-68
2023/01/27 02:36:00;;;;;;;14.98;7.00;;;;;;;;;;4932448;28;100261;-68
2023/01/27 02:38:29;;;;;;;20.98;7.18;;;;;;;;;;4933128;28;99682;-68
2023/01/27 02:40:58;;;;;;;23.05;8.00;;;;;;;;;;4931444;28;98515;-68
2023/01/27 02:43:24;;;;;;;16.92;7.53;;;;;;;;;;4933883;28;102250;-68
2023/01/27 02:45:50;;;;;;;18.88;8.15;;;;;;;;;;4931799;28;98787;-68
2023/01/27 02:48:17;;;;;;;16.60;7.72;;;;;;;;;;4933404;28;99593;-68
2023/01/27 02:50:43;;;;;;;17.13;7.82;;;;;;;;;;4932364;28;100103;-68
2023/01/27 02:53:09;;;;;;;21.45;9.32;;;;;;;;;;4932093;28;100526;-68
2023/01/27 02:55:36;;;;;;;18.77;8.40;;;;;;;;;;4935042;28;98555;-68
2023/01/27 02:58:02;;;;;;;14.27;8.73;;;;;;;;;;4932863;28;99508;-68
2023/01/27 03:00:29;;;;;;;21.80;9.05;;;;;;;;;;4933253;28;98585;-68
2023/01/27 03:02:55;;;;;;;16.83;8.50;;;;;;;;;;4933234;28;99222;-68
2023/01/27 03:05:21;;;;;;;16.90;8.95;;;;;;;;;;4932251;28;100091;-68
2023/01/27 03:07:47;;;;;;;21.48;9.90;;;;;;;;;;4932987;28;98888;-68
2023/01/27 03:10:14;;;;;;;19.48;8.82;;;;;;;;;;4933737;28;100339;-68
2023/01/27 03:12:40;;;;;;;21.80;9.15;;;;;;;;;;4931247;28;99838;-67
2023/01/27 03:20:37;;;;;;;19.25;9.48;;;;;;;;;;4933450;28;98922;-68
2023/01/27 03:23:04;;;;;;;20.80;10.40;;;;;;;;;;4932932;28;99278;-68
2023/01/27 03:25:30;;;;;;;22.52;11.20;;;;;;;;;;4932193;28;99533;-68
2023/01/27 03:27:57;;;;;;;20.52;10.93;;;;;;;;;;4932648;28;98893;-68
2023/01/27 03:30:23;;;;;;;22.45;11.10;;;;;;;;;;4930533;28;99315;-68
2023/01/27 03:32:49;;;;;;;18.13;9.93;;;;;;;;;;4931359;28;99705;-68
2023/01/27 03:35:16;;;;;;;14.27;9.30;;;;;;;;;;4932770;28;97864;-68
2023/01/27 03:46:17;;;;;;;16.48;10.35;;;;;;;;;;4920648;28;100613;-68
2023/01/27 03:48:47;;;;;;;12.65;8.95;;;;;;;;;;4932307;28;98523;-68
2023/01/27 03:51:14;;;;;;;22.50;10.70;;;;;;;;;;4932773;28;99017;-68
2023/01/27 03:53:40;;;;;;;16.17;9.68;;;;;;;;;;4930163;28;99593;-68
2023/01/27 03:56:06;;;;;;;21.67;9.82;;;;;;;;;;4932110;28;98574;-68
2023/01/27 03:58:34;;;;;;;13.23;9.63;;;;;;;;;;4932463;28;99599;-68
2023/01/27 04:01:00;;;;;;;15.07;9.27;;;;;;;;;;4935489;28;98769;-68
2023/01/27 04:08:59;;;;;;;17.10;8.68;;;;;;;;;;4931851;28;99223;-69
2023/01/27 04:14:11;;;;;;;13.75;7.10;;;;;;;;;;4931953;28;99422;-68
2023/01/27 04:16:38;;;;;;;12.63;7.90;;;;;;;;;;4930497;28;98687;-68
2023/01/27 04:19:05;;;;;;;13.82;7.63;;;;;;;;;;4930661;28;99201;-68
2023/01/27 04:21:31;;;;;;;9.00;6.47;;;;;;;;;;4931447;28;99279;-68
2023/01/27 04:23:58;;;;;;;10.38;7.00;;;;;;;;;;4935266;28;98789;-68
2023/01/27 04:26:24;;;;;;;8.57;6.47;;;;;;;;;;4931994;28;99146;-68
2023/01/27 04:28:51;;;;;;;10.05;6.88;;;;;;;;;;4931842;28;98845;-68
2023/01/27 04:31:17;;;;;;;9.10;6.90;;;;;;;;;;4932104;28;100422;-68
2023/01/27 04:33:44;;;;;;;8.35;6.43;;;;;;;;;;4931115;28;101405;-68
2023/01/27 04:36:14;;;;;;;10.93;6.60;;;;;;;;;;4931547;28;98651;-68
2023/01/27 04:38:40;;;;;;;10.48;7.18;;;;;;;;;;4932250;28;101476;-68
2023/01/27 04:41:06;;;;;;;10.13;6.60;;;;;;;;;;4931245;28;99816;-68
2023/01/27 04:43:33;;;;;;;7.30;5.97;;;;;;;;;;4932302;28;98415;-68
2023/01/27 04:45:59;;;;;;;10.48;6.35;;;;;;;;;;4934488;28;99153;-68
2023/01/27 04:48:25;;;;;;;8.70;6.20;;;;;;;;;;4930639;28;98865;-68
2023/01/27 04:50:52;;;;;;;8.77;5.50;;;;;;;;;;4930917;28;99563;-68
2023/01/27 04:53:18;;;;;;;11.60;5.57;;;;;;;;;;4930059;28;99783;-68
2023/01/27 04:55:46;;;;;;;6.28;5.45;;;;;;;;;;4931481;28;98539;-67
2023/01/27 04:58:13;;;;;;;8.10;5.38;;;;;;;;;;4930868;28;99393;-68
2023/01/27 05:00:39;;;;;;;7.68;5.40;;;;;;;;;;4931083;28;99834;-68
2023/01/27 05:03:08;;;;;;;12.18;4.53;;;;;;;;;;4931397;28;98532;-67
2023/01/27 05:05:35;;;;;;;6.53;4.78;;;;;;;;;;4929694;28;99180;-67
2023/01/27 05:08:05;;;;;;;5.47;4.68;;;;;;;;;;4934924;28;101133;-67
2023/01/27 05:10:32;;;;;;;11.80;4.57;;;;;;;;;;4931369;28;100567;-67
2023/01/27 05:12:58;;;;;;;6.03;3.88;;;;;;;;;;4931764;28;99768;-68
2023/01/27 05:15:24;;;;;;;5.13;3.40;;;;;;;;;;4931239;28;97761;-67
2023/01/27 05:17:51;;;;;;;5.63;3.97;;;;;;;;;;4932211;28;98666;-67
2023/01/27 05:20:17;;;;;;;7.38;3.53;;;;;;;;;;4932056;28;100768;-68
2023/01/27 05:22:44;;;;;;;8.10;3.90;;;;;;;;;;4930859;28;99266;-67
2023/01/27 05:25:10;;;;;;;5.70;3.90;;;;;;;;;;4932040;28;99911;-67
2023/01/27 05:27:37;;;;;;;5.65;3.92;;;;;;;;;;4931401;28;99665;-67
2023/01/27 05:30:04;;;;;;;6.60;3.47;;;;;;;;;;4936086;28;98532;-67
2023/01/27 05:32:30;;;;;;;5.45;3.40;;;;;;;;;;4933196;28;99595;-67
2023/01/27 05:34:56;;;;;;;4.43;3.53;;;;;;;;;;4931711;28;99037;-68
2023/01/27 05:37:23;;;;;;;10.15;3.95;;;;;;;;;;4929339;28;98857;-68
2023/01/27 05:39:49;;;;;;;4.38;2.95;;;;;;;;;;4913597;28;99069;-67
2023/01/27 05:42:15;;;;;;;4.53;4.03;;;;;;;;;;4926638;28;98604;-68
2023/01/27 05:44:42;;;;;;;5.43;3.70;;;;;;;;;;4932975;28;99331;-67
2023/01/27 05:47:08;;;;;;;8.30;4.25;;;;;;;;;;4930687;28;100291;-68
2023/01/27 05:49:34;;;;;;;5.47;3.47;;;;;;;;;;4936068;28;98684;-68
2023/01/27 05:52:00;;;;;;;4.60;3.90;;;;;;;;;;4932457;28;99539;-68
2023/01/27 05:54:27;;;;;;;6.35;3.80;;;;;;;;;;4931499;28;98801;-69
2023/01/27 05:56:53;;;;;;;4.10;3.55;;;;;;;;;;4930697;28;100596;-68
2023/01/27 05:59:21;;;;;;;6.07;3.88;;;;;;;;;;4931598;28;98724;-68
2023/01/27 06:01:47;;;;;;;4.72;4.03;;;;;;;;;;4931816;28;98516;-68
2023/01/27 06:04:14;;;;;;;4.75;3.70;;;;;;;;;;4931643;28;99542;-68
2023/01/27 06:06:41;;;;;;;7.43;3.72;;;;;;;;;;4930265;28;101018;-68
2023/01/27 06:09:08;;;;;;;5.80;4.13;;;;;;;;;;4931219;28;98855;-68
2023/01/27 06:11:34;;;;;;;5.22;3.40;;;;;;;;;;4933616;28;99235;-68
2023/01/27 06:14:01;;;;;;;4.63;3.28;;;;;;;;;;4930630;28;98532;-68
2023/01/27 06:16:27;;;;;;;5.28;3.28;;;;;;;;;;4931605;28;99245;-68
2023/01/27 06:18:54;;;;;;;4.30;3.25;;;;;;;;;;4933415;28;99521;-68
2023/01/27 06:21:20;;;;;;;6.85;3.85;;;;;;;;;;4934257;28;98494;-68
2023/01/27 06:23:46;;;;;;;6.82;3.80;;;;;;;;;;4932126;28;99333;-68
2023/01/27 06:26:15;;;;;;;4.47;3.40;;;;;;;;;;4933518;28;100688;-68
2023/01/27 06:28:41;;;;;;;5.60;3.50;;;;;;;;;;4933400;28;97798;-68
2023/01/27 06:31:09;;;;;;;5.25;3.15;;;;;;;;;;4933746;28;98953;-68
2023/01/27 06:33:36;;;;;;;6.18;3.00;;;;;;;;;;4936430;28;99588;-68
2023/01/27 06:36:04;;;;;;;5.15;3.00;;;;;;;;;;4933099;28;99621;-68
2023/01/27 06:38:30;;;;;;;3.45;2.92;;;;;;;;;;4933453;28;99699;-68
2023/01/27 06:40:57;;;;;;;5.43;2.90;;;;;;;;;;4933492;28;98559;-68
2023/01/27 06:43:23;;;;;;;3.45;2.78;;;;;;;;;;4933486;28;99147;-68
2023/01/27 06:45:49;;;;;;;6.65;2.97;;;;;;;;;;4933270;28;99366;-68
2023/01/27 06:48:16;;;;;;;3.85;2.80;;;;;;;;;;4933279;28;98484;-68
2023/01/27 06:50:42;;;;;;;3.25;2.42;;;;;;;;;;4932902;28;99365;-68
2023/01/27 06:53:08;;;;;;;5.90;2.78;;;;;;;;;;4933575;28;98733;-68
2023/01/27 06:55:40;;;;;;;3.28;2.55;;;;;;;;;;4935426;28;98854;-68
2023/01/27 06:58:07;;;;;;;5.85;3.00;;;;;;;;;;4932886;28;99764;-68
2023/01/27 07:00:35;;;;;;;3.15;2.72;;;;;;;;;;4933044;28;99267;-69
2023/01/27 07:03:01;;;;;;;4.88;2.38;;;;;;;;;;4933094;28;99904;-68
2023/01/27 07:05:28;;;;;;;6.80;2.75;;;;;;;;;;4930868;28;99518;-67
2023/01/27 07:07:54;;;;;;;3.55;2.50;;;;;;;;;;4932913;28;98581;-67
2023/01/27 07:10:20;;;;;;;3.92;2.50;;;;;;;;;;4931668;28;99546;-68
2023/01/27 07:12:47;;;;;;;3.42;2.30;;;;;;;;;;4932767;28;99591;-68
2023/01/27 07:15:13;;;;;;;2.75;2.42;;;;;;;;;;4933417;28;98587;-68
2023/01/27 07:17:39;;;;;;;2.55;2.35;;;;;;;;;;4936005;28;99373;-67
2023/01/27 07:20:07;;;;;;;2.35;2.10;;;;;;;;;;4932688;28;98505;-67
2023/01/27 07:22:33;;;;;;;6.05;2.60;;;;;;;;;;4932869;28;99494;-68
2023/01/27 07:24:59;;;;;;;3.50;2.53;;;;;;;;;;4931838;28;101053;-67
2023/01/27 07:27:27;;;;;;;2.60;2.40;;;;;;;;;;4931919;28;98704;-67
2023/01/27 07:29:53;;;;;;;2.33;2.13;;;;;;;;;;4932699;28;99407;-68
2023/01/27 07:32:19;;;;;;;5.65;2.38;;;;;;;;;;4932210;28;99641;-67
2023/01/27 07:34:46;;;;;;;4.07;2.13;;;;;;;;;;4932382;28;98544;-68
2023/01/27 07:37:12;;;;;;;4.82;2.95;;;;;;;;;;4930491;28;99436;-68
2023/01/27 07:39:39;;;;;;;4.63;2.70;;;;;;;;;;4913298;28;98515;-68
2023/01/27 07:42:06;;;;;;;2.50;2.30;;;;;;;;;;4913592;28;99240;-68
2023/01/27 07:44:32;;;;;;;4.32;2.40;;;;;;;;;;4912923;28;99483;-68
2023/01/27 07:46:58;;;;;;;5.60;3.15;;;;;;;;;;4929259;28;98738;-68
2023/01/27 07:49:25;;;;;;;5.32;2.42;;;;;;;;;;4932283;28;99414;-68
2023/01/27 07:51:53;;;;;;;9.68;2.95;;;;;;;;;;4932575;28;102724;-68
2023/01/27 07:54:19;;;;;;;5.75;2.65;;;;;;;;;;4932416;28;98535;-68
2023/01/27 07:56:45;;;;;;;2.63;2.40;;;;;;;;;;4931054;28;99106;-68
2023/01/27 07:59:12;;;;;;;4.47;2.83;;;;;;;;;;4935290;28;99717;-68
2023/01/27 08:01:40;;;;;;;3.40;2.70;;;;;;;;;;4932659;28;101448;-68
2023/01/27 08:04:06;;;;;;;4.32;2.78;;;;;;;;;;4930692;28;99775;-67
2023/01/27 08:06:32;;;;;;;4.13;2.85;;;;;;;;;;4932132;28;97875;-67
2023/01/27 08:08:59;;;;;;;6.55;2.72;;;;;;;;;;4931242;28;98492;-68
2023/01/27 08:11:25;;;;;;;5.10;3.10;;;;;;;;;;4932098;28;99529;-68
2023/01/27 08:13:52;;;;;;;4.97;2.55;;;;;;;;;;4930959;28;99265;-68
2023/01/27 08:16:18;;;;;;;5.65;2.70;;;;;;;;;;4932061;28;99908;-68
2023/01/27 08:18:44;;;;;;;2.53;2.28;;;;;;;;;;4931452;28;99535;-68
2023/01/27 08:21:11;;;;;;;6.53;2.35;;;;;;;;;;4935215;28;98535;-68
2023/01/27 08:23:38;;;;;;;8.48;2.92;;;;;;;;;;4931876;28;99471;-68
2023/01/27 08:26:05;;;;;;;8.68;2.80;;;;;;;;;;4932053;28;98826;-68
2023/01/27 08:28:32;;;;;;;5.13;2.92;;;;;;;;;;4932274;28;99333;-67
2023/01/27 08:31:06;;;;;;;3.42;2.50;;;;;;;;;;4931828;28;98862;-68
2023/01/27 08:33:33;;;;;;;7.30;2.92;;;;;;;;;;4931828;28;98487;-68
2023/01/27 08:36:03;;;;;;;8.80;3.10;;;;;;;;;;4927774;28;99862;-68
2023/01/27 08:38:30;;;;;;;5.03;2.67;;;;;;;;;;4920168;28;100279;-67
2023/01/27 08:40:56;;;;;;;6.22;2.92;;;;;;;;;;4929978;28;98858;-68
2023/01/27 08:43:22;;;;;;;7.25;2.42;;;;;;;;;;4934454;28;99426;-67
2023/01/27 08:45:50;;;;;;;14.45;3.10;;;;;;;;;;4931748;28;98949;-68
2023/01/27 08:48:17;;;;;;;7.38;2.25;;;;;;;;;;4931452;28;99479;-68
2023/01/27 08:50:43;;;;;;;4.63;2.50;;;;;;;;;;4931365;28;98849;-67
2023/01/27 08:53:09;;;;;;;2.10;1.80;;;;;;;;;;4931565;28;98522;-68
2023/01/27 08:55:36;;;;;;;3.25;2.00;;;;;;;;;;4931147;28;102193;-68
2023/01/27 08:58:02;;;;;;;5.72;2.53;;;;;;;;;;4930804;28;99508;-68
2023/01/27 09:00:28;;;;;;;11.13;2.88;;;;;;;;;;4931892;28;98544;-67
2023/01/27 09:02:55;;;;;;;3.63;1.85;;;;;;;;;;4930850;28;99266;-67
2023/01/27 09:05:21;;;;;;;2.78;1.98;;;;;;;;;;4932447;28;99622;-68
2023/01/27 09:07:48;;;;;;;3.40;2.30;;;;;;;;;;4931333;28;99478;-68
2023/01/27 09:10:14;;;;;;;2.83;1.58;;;;;;;;;;4930998;28;99807;-68
2023/01/27 09:12:41;;;;;;;3.67;1.92;;;;;;;;;;4931200;28;98566;-68
2023/01/27 09:15:08;;;;;;;4.13;1.70;;;;;;;;;;4915035;28;98549;-68
2023/01/27 09:17:34;;;;;;;7.55;2.15;;;;;;;;;;4930949;28;99988;-67
2023/01/27 09:20:01;;;;;;;2.67;1.80;;;;;;;;;;4931959;28;97850;-68
2023/01/27 09:22:27;;;;;;;3.88;1.80;;;;;;;;;;4930354;28;99995;-67
2023/01/27 09:24:53;;;;;;;3.45;1.90;;;;;;;;;;4930565;28;99778;-67
2023/01/27 09:27:20;;;;;;;3.42;1.85;;;;;;;;;;4934005;28;99355;-68
2023/01/27 09:30:04;;;;;;;1.75;1.65;;;;;;;;;;4930791;28;98523;-67
2023/01/27 09:32:30;;;;;;;3.33;1.95;;;;;;;;;;4931383;28;98923;-68
2023/01/27 09:34:56;;;;;;;2.65;1.80;;;;;;;;;;4931277;28;99523;-68
2023/01/27 09:37:23;;;;;;;4.25;1.67;;;;;;;;;;4930492;28;100208;-68
2023/01/27 09:39:55;;;;;;;4.30;2.55;;;;;;;;;;4931416;28;98566;-67
2023/01/27 09:42:51;;;;;;;3.47;1.77;;;;;;;;;;4930790;28;99114;-68
2023/01/27 09:45:32;;;;;;;3.00;1.90;;;;;;;;;;4913913;28;98846;-67
2023/01/27 09:48:22;;;;;;;6.30;2.10;;;;;;;;;;4934086;28;98579;-68
2023/01/27 09:51:04;;;;;;;4.15;2.30;;;;;;;;;;4931123;28;102347;-67
2023/01/27 09:53:57;;;;;;;3.53;2.10;;;;;;;;;;4932237;28;99267;-68
2023/01/27 09:56:40;;;;;;;4.30;2.20;;;;;;;;;;4918330;28;100196;-68
2023/01/27 09:59:06;;;;;;;5.97;3.13;;;;;;;;;;4931934;28;99457;-68
2023/01/27 10:01:47;;;;;;;7.20;2.75;;;;;;;;;;4934365;28;98538;-67
2023/01/27 10:04:26;;;;;;;7.40;2.20;;;;;;;;;;4934272;28;99230;-68
2023/01/27 10:07:11;;;;;;;3.60;2.75;;;;;;;;;;4933477;28;99885;-68
2023/01/27 10:09:40;;;;;;;5.15;2.70;;;;;;;;;;4933880;28;98544;-67
2023/01/27 10:12:24;;;;;;;6.10;2.83;;;;;;;;;;4937341;28;100485;-68
2023/01/27 10:14:58;;;;;;;6.63;2.53;;;;;;;;;;4932408;28;98570;-67
2023/01/27 10:17:31;;;;;;;5.88;2.85;;;;;;;;;;4914580;28;99240;-68
2023/01/27 10:20:04;;;;;;;3.55;2.33;;;;;;;;;;4912219;28;100286;-69
2023/01/27 10:22:40;;;;;;;6.45;2.65;;;;;;;;;;4914412;28;98847;-68
2023/01/27 10:25:06;;;;;;;2.63;2.30;;;;;;;;;;4912931;28;99180;-67
2023/01/27 10:27:35;;;;;;;4.38;2.50;;;;;;;;;;4912856;28;99495;-68
2023/01/27 10:30:01;;;;;;;5.30;2.20;;;;;;;;;;4914633;28;98953;-68
2023/01/27 10:32:30;;;;;;;2.65;2.40;;;;;;;;;;4914636;28;99160;-68
2023/01/27 10:34:56;;;;;;;5.22;2.60;;;;;;;;;;4917235;28;99802;-68
2023/01/27 10:37:39;;;;;;;2.38;2.17;;;;;;;;;;4931422;28;99453;-68
2023/01/27 10:40:05;;;;;;;3.70;2.70;;;;;;;;;;4932923;28;99496;-67
2023/01/27 10:42:37;;;;;;;2.70;2.47;;;;;;;;;;4933489;28;98447;-68
2023/01/27 10:45:09;;;;;;;5.38;2.42;;;;;;;;;;4933073;28;99520;-68
2023/01/27 10:47:41;;;;;;;5.40;2.53;;;;;;;;;;4933137;28;99777;-68
2023/01/27 10:50:11;;;;;;;4.95;2.75;;;;;;;;;;4933534;28;98542;-67
2023/01/27 10:52:40;;;;;;;3.15;2.53;;;;;;;;;;4933282;28;99530;-68
2023/01/27 10:55:06;;;;;;;4.90;3.10;;;;;;;;;;4932947;28;99747;-68
2023/01/27 10:57:53;;;;;;;7.00;3.03;;;;;;;;;;4937162;28;98574;-68
2023/01/27 11:00:25;;;;;;;15.82;3.55;;;;;;;;;;4932733;28;99880;-67
2023/01/27 11:03:14;;;;;;;11.75;3.10;;;;;;;;;;4932046;28;97816;-67
2023/01/27 11:05:42;;;;;;;4.00;2.83;;;;;;;;;;4933092;28;98467;-67
2023/01/27 11:08:19;;;;;;;3.10;2.80;;;;;;;;;;4932113;28;101813;-67
2023/01/27 11:13:32;;;;;;;3.22;2.60;;;;;;;;;;4932940;28;99832;-68
2023/01/27 11:15:59;;;;;;;6.22;3.33;;;;;;;;;;4932590;28;99690;-68
2023/01/27 11:18:27;;;;;;;3.90;2.60;;;;;;;;;;4933048;28;98853;-67
2023/01/27 11:21:09;;;;;;;3.83;2.88;;;;;;;;;;4934762;28;99140;-68
2023/01/27 11:23:41;;;;;;;6.05;3.28;;;;;;;;;;4931218;28;98598;-67
2023/01/27 11:26:26;;;;;;;9.13;2.90;;;;;;;;;;4931702;28;99438;-68
2023/01/27 11:29:11;;;;;;;6.55;3.08;;;;;;;;;;4933034;28;98870;-68
2023/01/27 11:31:56;;;;;;;4.80;2.78;;;;;;;;;;4932017;28;98978;-68
2023/01/27 11:34:22;;;;;;;3.03;2.72;;;;;;;;;;4933204;28;99615;-68
2023/01/27 11:36:49;;;;;;;3.20;2.90;;;;;;;;;;4927984;28;100243;-68
2023/01/27 11:39:17;;;;;;;7.65;3.30;;;;;;;;;;4917167;28;98544;-68
2023/01/27 11:41:50;;;;;;;6.18;2.95;;;;;;;;;;4913807;28;100255;-68
2023/01/27 11:44:19;;;;;;;4.22;2.92;;;;;;;;;;4915937;28;99646;-68
2023/01/27 11:46:46;;;;;;;4.10;2.97;;;;;;;;;;4927918;28;100416;-68
2023/01/27 11:49:17;;;;;;;3.85;3.00;;;;;;;;;;4932635;28;100533;-68
2023/01/27 11:51:44;;;;;;;2.78;2.55;;;;;;;;;;4932605;28;98597;-68
2023/01/27 11:54:16;;;;;;;6.93;2.80;;;;;;;;;;4932957;28;99085;-67
2023/01/27 11:56:45;;;;;;;4.93;3.03;;;;;;;;;;4932462;28;101864;-67
2023/01/27 11:59:21;;;;;;;6.40;3.53;;;;;;;;;;4931851;28;98529;-67
2023/01/27 12:01:51;;;;;;;5.10;4.35;;;;;;;;;;4932024;28;99522;-67
2023/01/27 12:04:20;;;;;;;6.07;4.57;;;;;;;;;;4935051;28;99773;-67
2023/01/27 12:06:49;;;;;;;8.90;6.70;;;;;;;;;;4931765;28;99670;-67
2023/01/27 12:09:38;;;;;;;11.23;7.07;;;;;;;;;;4930801;28;100514;-67
2023/01/27 12:12:09;;;;;;;11.52;7.40;;;;;;;;;;4932095;28;98529;-67
2023/01/27 12:14:36;;;;;;;9.38;6.70;;;;;;;;;;4917934;28;99146;-67
2023/01/27 12:17:03;;;;;;;8.13;5.80;;;;;;;;;;4929285;28;99513;-67
2023/01/27 12:19:33;;;;;;;4.78;4.03;;;;;;;;;;4932402;28;97903;-68
2023/01/27 12:22:01;;;;;;;4.88;4.22;;;;;;;;;;4932215;28;98787;-68
2023/01/27 12:24:32;;;;;;;3.67;3.38;;;;;;;;;;4930619;28;100476;-67
2023/01/27 12:26:59;;;;;;;5.38;3.70;;;;;;;;;;4933950;28;99362;-68
2023/01/27 12:29:45;;;;;;;4.88;3.70;;;;;;;;;;4931532;28;99736;-68
2023/01/27 12:32:23;;;;;;;3.75;3.08;;;;;;;;;;4932059;28;98765;-68
2023/01/27 12:34:50;;;;;;;5.82;3.25;;;;;;;;;;4931924;28;99119;-68
2023/01/27 12:37:20;;;;;;;4.53;3.20;;;;;;;;;;4931385;28;99376;-68
2023/01/27 12:39:56;;;;;;;3.80;3.10;;;;;;;;;;4930447;28;98886;-67
2023/01/27 12:42:41;;;;;;;3.40;3.10;;;;;;;;;;4931765;28;99048;-68
2023/01/27 12:45:30;;;;;;;3.42;3.00;;;;;;;;;;4931687;28;99281;-68
2023/01/27 12:48:00;;;;;;;3.40;3.10;;;;;;;;;;4931866;28;98434;-67
2023/01/27 12:50:31;;;;;;;3.63;3.10;;;;;;;;;;4934386;28;99159;-68
2023/01/27 12:53:17;;;;;;;4.97;2.88;;;;;;;;;;4931277;28;99275;-67
2023/01/27 12:56:02;;;;;;;3.40;3.10;;;;;;;;;;4930161;28;99971;-68
2023/01/27 12:58:37;;;;;;;9.25;3.22;;;;;;;;;;4929845;28;99752;-68
2023/01/27 13:01:06;;;;;;;4.97;2.42;;;;;;;;;;4929893;28;99999;-68
2023/01/27 13:03:37;;;;;;;3.58;3.05;;;;;;;;;;4931584;28;99792;-68
2023/01/27 13:06:04;;;;;;;8.07;3.10;;;;;;;;;;4930429;28;99495;-68
2023/01/27 13:08:31;;;;;;;4.18;2.75;;;;;;;;;;4931488;28;98553;-68
2023/01/27 13:10:58;;;;;;;6.25;2.80;;;;;;;;;;4931681;28;99439;-68
2023/01/27 13:13:26;;;;;;;4.28;2.92;;;;;;;;;;4934508;28;99840;-68
2023/01/27 13:16:13;;;;;;;4.18;3.13;;;;;;;;;;4931290;28;99441;-68
2023/01/27 13:18:41;;;;;;;4.47;3.13;;;;;;;;;;4930560;28;100534;-68
2023/01/27 13:21:17;;;;;;;2.58;2.35;;;;;;;;;;4931373;28;98617;-68
2023/01/27 13:23:45;;;;;;;3.00;2.42;;;;;;;;;;4931401;28;100706;-68
2023/01/27 13:26:14;;;;;;;3.28;2.33;;;;;;;;;;4932620;28;99578;-68
2023/01/27 13:28:52;;;;;;;5.97;2.35;;;;;;;;;;4934722;28;98626;-68
2023/01/27 13:31:21;;;;;;;2.58;2.20;;;;;;;;;;4934654;28;99454;-68
2023/01/27 13:33:53;;;;;;;3.40;2.40;;;;;;;;;;4934362;28;100435;-68
2023/01/27 13:36:28;;;;;;;2.47;2.28;;;;;;;;;;4933909;28;97841;-68
2023/01/27 13:38:58;;;;;;;4.88;2.20;;;;;;;;;;4914880;28;99851;-68
2023/01/27 13:41:30;;;;;;;2.90;2.63;;;;;;;;;;4914732;28;98745;-68
2023/01/27 13:44:00;;;;;;;5.45;2.40;;;;;;;;;;4915174;28;99238;-68
2023/01/27 13:46:27;;;;;;;;;;;;;;;;;;4926063;28;99718;-68
2023/01/27 13:48:54;;;;;;;3.95;2.45;;;;;;;;;;4935156;28;118502;-69
2023/01/27 13:51:22;;;;;;;6.45;2.50;;;;;;;;;;4934304;28;99241;-68
2023/01/27 13:53:55;;;;;;;3.03;2.72;;;;;;;;;;4933694;28;99841;-68
2023/01/27 13:56:29;;;;;;;2.75;2.25;;;;;;;;;;4934298;28;98514;-68
2023/01/27 13:59:14;;;;;;;3.03;2.08;;;;;;;;;;4937191;28;99469;-68
2023/01/27 14:01:59;;;;;;;2.78;2.33;;;;;;;;;;4933728;28;97828;-68
2023/01/27 14:04:41;;;;;;;2.67;2.47;;;;;;;;;;4934467;28;98876;-68
2023/01/27 14:07:25;;;;;;;2.78;2.58;;;;;;;;;;4931858;28;99967;-68
2023/01/27 14:09:54;;;;;;;4.07;2.40;;;;;;;;;;4933765;28;99311;-68
2023/01/27 14:12:20;;;;;;;2.60;2.40;;;;;;;;;;4933782;28;100368;-68
2023/01/27 14:14:47;;;;;;;2.60;2.40;;;;;;;;;;4932645;28;102129;-68
2023/01/27 14:17:29;;;;;;;2.30;2.13;;;;;;;;;;4934005;28;98904;-68
2023/01/27 14:19:58;;;;;;;2.80;2.50;;;;;;;;;;4937022;28;99644;-68
2023/01/27 14:22:24;;;;;;;2.70;2.50;;;;;;;;;;4934537;28;98566;-68
2023/01/27 14:24:55;;;;;;;2.50;2.30;;;;;;;;;;4933908;28;99125;-68
2023/01/27 14:27:24;;;;;;;2.33;2.15;;;;;;;;;;4933957;28;99076;-68
2023/01/27 14:29:50;;;;;;;2.55;2.35;;;;;;;;;;4932579;28;98952;-68
2023/01/27 14:32:35;;;;;;;2.03;1.92;;;;;;;;;;4933849;28;99679;-68
2023/01/27 14:35:18;;;;;;;3.33;2.40;;;;;;;;;;4932731;28;100545;-68
2023/01/27 14:38:03;;;;;;;2.35;2.17;;;;;;;;;;4924553;28;99718;-68
2023/01/27 14:40:39;;;;;;;2.30;2.10;;;;;;;;;;4914289;28;99222;-68
2023/01/27 14:43:15;;;;;;;3.03;2.80;;;;;;;;;;4929588;28;99825;-68
2023/01/27 14:45:46;;;;;;;3.00;2.70;;;;;;;;;;4933725;28;99964;-69
2023/01/27 14:48:18;;;;;;;2.58;2.38;;;;;;;;;;4932089;28;99810;-68
2023/01/27 14:50:57;;;;;;;2.80;2.60;;;;;;;;;;4932254;28;98554;-68
2023/01/27 14:53:30;;;;;;;2.75;2.50;;;;;;;;;;4934341;28;100095;-68
2023/01/27 14:55:59;;;;;;;2.80;2.28;;;;;;;;;;4933272;28;103932;-69
2023/01/27 14:58:35;;;;;;;2.78;2.58;;;;;;;;;;4933599;28;98440;-68
2023/01/27 15:01:20;;;;;;;2.70;2.50;;;;;;;;;;4931157;28;99336;-68
2023/01/27 15:03:46;;;;;;;3.10;2.78;;;;;;;;;;4931414;28;99630;-68
2023/01/27 15:06:30;;;;;;;4.05;3.03;;;;;;;;;;4927175;28;98739;-68
2023/01/27 15:09:09;;;;;;;3.58;2.85;;;;;;;;;;4913414;28;99845;-68
2023/01/27 15:11:44;;;;;;;5.55;2.78;;;;;;;;;;4913787;28;98547;-68
2023/01/27 15:14:10;;;;;;;2.90;2.60;;;;;;;;;;4913871;28;98970;-68
2023/01/27 15:16:43;;;;;;;4.53;3.15;;;;;;;;;;4926573;28;98582;-68
2023/01/27 15:19:12;;;;;;;3.40;2.88;;;;;;;;;;4933223;28;97983;-68
2023/01/27 15:21:41;;;;;;;3.20;2.90;;;;;;;;;;4932888;28;98636;-68
2023/01/27 15:24:08;;;;;;;2.72;2.53;;;;;;;;;;4931386;28;99828;-68
2023/01/27 15:26:35;;;;;;;3.30;3.00;;;;;;;;;;4932220;28;99599;-68